Time;durP1;ratioP1;P1;durP2;ratioP2;P2;SDS_P1;SDS_P2;PMS_P1;PMS_P2;Temp;Humidity;BMP_temperature;BMP_pressure;BME280_temperature;BME280_humidity;BME280_pressure;Samples;Min_cycle;Max_cycle;Signal;HPM_P1;HPM_P2
2023/08/20 00:00:11;;;;;;;9.13;4.07;;;;;;;;;;5078931;28;20457;-83
2023/08/20 00:02:39;;;;;;;4.75;4.00;;;;;;;;;;5084396;28;20024;-83
2023/08/20 00:05:05;;;;;;;6.75;3.88;;;;;;;;;;5082980;28;20047;-83
2023/08/20 00:07:31;;;;;;;6.63;4.30;;;;;;;;;;5077550;28;20381;-83
2023/08/20 00:09:56;;;;;;;6.82;4.10;;;;;;;;;;5083218;28;20085;-83
2023/08/20 00:12:22;;;;;;;6.43;3.83;;;;;;;;;;5077890;28;20023;-83
2023/08/20 00:15:05;;;;;;;6.13;4.13;;;;;;;;;;5082520;28;20108;-83
2023/08/20 00:17:32;;;;;;;4.63;4.03;;;;;;;;;;5081751;28;20032;-83
2023/08/20 00:19:58;;;;;;;6.15;4.10;;;;;;;;;;5082149;28;20597;-83
2023/08/20 00:22:24;;;;;;;5.05;4.07;;;;;;;;;;5077523;28;20032;-84
2023/08/20 00:24:52;;;;;;;8.00;4.47;;;;;;;;;;5070894;28;20058;-83
2023/08/20 00:27:17;;;;;;;6.50;4.00;;;;;;;;;;5074333;28;20099;-83
2023/08/20 00:29:43;;;;;;;8.98;4.55;;;;;;;;;;5076318;28;20062;-83
2023/08/20 00:32:08;;;;;;;5.20;4.13;;;;;;;;;;5080361;28;20027;-83
2023/08/20 00:34:34;;;;;;;8.48;4.47;;;;;;;;;;5078506;28;20042;-83
2023/08/20 00:37:00;;;;;;;5.88;4.25;;;;;;;;;;5081146;28;20032;-83
2023/08/20 00:39:25;;;;;;;6.55;4.70;;;;;;;;;;5079317;28;20043;-82
2023/08/20 00:41:51;;;;;;;6.10;4.45;;;;;;;;;;5080141;28;20025;-82
2023/08/20 00:44:16;;;;;;;7.95;4.88;;;;;;;;;;5077881;28;20373;-83
2023/08/20 00:46:41;;;;;;;4.35;3.85;;;;;;;;;;5078661;28;20441;-83
2023/08/20 00:49:07;;;;;;;4.85;3.75;;;;;;;;;;5079156;28;20078;-83
2023/08/20 00:51:33;;;;;;;5.72;4.43;;;;;;;;;;5079700;28;20156;-83
2023/08/20 00:54:00;;;;;;;5.88;3.85;;;;;;;;;;5074397;28;20037;-83
2023/08/20 00:56:26;;;;;;;6.10;4.05;;;;;;;;;;5081523;28;20509;-83
2023/08/20 00:58:53;;;;;;;4.72;3.65;;;;;;;;;;5077164;28;20032;-83
2023/08/20 01:01:18;;;;;;;6.00;4.45;;;;;;;;;;5080695;28;20687;-82
2023/08/20 01:03:43;;;;;;;4.53;3.95;;;;;;;;;;5078555;28;20024;-83
2023/08/20 01:06:31;;;;;;;5.65;4.57;;;;;;;;;;5077793;28;20031;-83
2023/08/20 01:09:03;;;;;;;6.05;4.68;;;;;;;;;;5081783;28;20092;-83
2023/08/20 01:11:30;;;;;;;;;;;;;;;;;;5081497;28;20096;-83
2023/08/20 01:13:55;;;;;;;6.47;4.20;;;;;;;;;;5084188;28;19961;-83
2023/08/20 01:16:21;;;;;;;6.03;4.50;;;;;;;;;;5083586;28;20029;-83
2023/08/20 01:18:48;;;;;;;6.22;4.18;;;;;;;;;;5079274;28;20103;-83
2023/08/20 01:21:44;;;;;;;7.38;4.50;;;;;;;;;;5079494;28;20109;-83
2023/08/20 01:24:55;;;;;;;8.40;4.00;;;;;;;;;;5075028;28;20024;-83
2023/08/20 01:27:51;;;;;;;5.88;4.40;;;;;;;;;;5089015;28;20058;-83
2023/08/20 01:30:18;;;;;;;9.75;4.38;;;;;;;;;;5085606;28;20569;-83
2023/08/20 01:32:44;;;;;;;6.55;3.97;;;;;;;;;;5091493;28;20027;-83
2023/08/20 01:35:13;;;;;;;4.63;3.85;;;;;;;;;;5087046;28;20507;-83
2023/08/20 01:37:39;;;;;;;7.38;4.53;;;;;;;;;;5081148;28;20088;-83
2023/08/20 01:40:07;;;;;;;6.05;4.25;;;;;;;;;;5086298;28;20039;-83
2023/08/20 01:42:32;;;;;;;4.40;3.67;;;;;;;;;;5084594;28;20031;-83
2023/08/20 01:44:57;;;;;;;5.28;4.28;;;;;;;;;;5078819;28;20033;-82
2023/08/20 01:47:23;;;;;;;5.82;4.70;;;;;;;;;;5076086;28;20043;-82
2023/08/20 01:49:48;;;;;;;7.28;4.85;;;;;;;;;;5082353;28;20031;-82
2023/08/20 01:52:13;;;;;;;7.05;4.78;;;;;;;;;;5076548;28;20037;-82
2023/08/20 01:54:38;;;;;;;8.43;5.05;;;;;;;;;;5078923;28;20024;-83
2023/08/20 01:57:04;;;;;;;7.18;4.78;;;;;;;;;;5076546;28;20036;-82
2023/08/20 01:59:29;;;;;;;6.47;4.78;;;;;;;;;;5074513;28;20077;-83
2023/08/20 02:01:54;;;;;;;7.93;4.78;;;;;;;;;;5078134;28;20028;-82
2023/08/20 02:04:20;;;;;;;7.88;5.00;;;;;;;;;;5072171;28;20110;-82
2023/08/20 02:06:45;;;;;;;8.07;5.30;;;;;;;;;;5076284;28;20069;-82
2023/08/20 02:09:10;;;;;;;7.38;4.97;;;;;;;;;;5075034;28;20019;-82
2023/08/20 02:11:36;;;;;;;6.68;4.47;;;;;;;;;;5075816;28;20016;-83
2023/08/20 02:14:02;;;;;;;7.32;5.18;;;;;;;;;;5077108;28;20052;-82
2023/08/20 02:16:27;;;;;;;6.35;4.80;;;;;;;;;;5070468;28;20805;-83
2023/08/20 02:18:53;;;;;;;5.35;4.20;;;;;;;;;;5076754;28;20115;-83
2023/08/20 02:21:18;;;;;;;6.43;4.60;;;;;;;;;;5075164;28;20064;-82
2023/08/20 02:23:43;;;;;;;7.22;4.80;;;;;;;;;;5073708;28;20043;-83
2023/08/20 02:26:09;;;;;;;5.97;4.53;;;;;;;;;;5075583;28;20048;-83
2023/08/20 02:28:34;;;;;;;5.75;4.60;;;;;;;;;;5079762;28;20111;-83
2023/08/20 02:31:04;;;;;;;6.60;4.38;;;;;;;;;;5069839;28;20138;-82
2023/08/20 02:33:29;;;;;;;5.75;4.72;;;;;;;;;;5078958;28;20027;-83
2023/08/20 02:35:55;;;;;;;5.47;4.43;;;;;;;;;;5074176;28;20040;-82
2023/08/20 02:38:20;;;;;;;9.27;4.75;;;;;;;;;;5076247;28;20126;-83
2023/08/20 02:40:45;;;;;;;5.88;4.55;;;;;;;;;;5077992;28;20020;-83
2023/08/20 02:43:10;;;;;;;6.15;4.88;;;;;;;;;;5069553;28;20104;-82
2023/08/20 02:45:43;;;;;;;5.85;4.70;;;;;;;;;;5070270;28;20033;-83
2023/08/20 02:48:08;;;;;;;8.02;4.68;;;;;;;;;;5075575;28;20032;-83
2023/08/20 02:50:34;;;;;;;7.03;5.03;;;;;;;;;;5073786;28;20040;-82
2023/08/20 02:52:59;;;;;;;6.68;4.85;;;;;;;;;;5074645;28;20020;-83
2023/08/20 02:55:25;;;;;;;7.72;4.65;;;;;;;;;;5077222;28;20035;-83
2023/08/20 02:57:50;;;;;;;7.30;4.18;;;;;;;;;;5074015;28;20031;-83
2023/08/20 03:00:15;;;;;;;5.00;4.05;;;;;;;;;;5071653;28;20101;-83
2023/08/20 03:02:41;;;;;;;5.68;4.63;;;;;;;;;;5075648;28;20016;-82
2023/08/20 03:05:08;;;;;;;5.95;4.88;;;;;;;;;;5072946;28;20049;-83
2023/08/20 03:07:34;;;;;;;7.45;4.38;;;;;;;;;;5081972;28;20025;-83
2023/08/20 03:09:59;;;;;;;5.00;4.15;;;;;;;;;;5072286;28;20035;-83
2023/08/20 03:12:24;;;;;;;6.40;4.57;;;;;;;;;;5072299;28;20029;-83
2023/08/20 03:14:50;;;;;;;8.23;4.90;;;;;;;;;;5074626;28;20495;-82
2023/08/20 03:17:15;;;;;;;6.63;4.55;;;;;;;;;;5077204;28;20481;-83
2023/08/20 03:19:57;;;;;;;7.25;4.40;;;;;;;;;;5069910;28;20029;-82
2023/08/20 03:22:24;;;;;;;8.70;4.57;;;;;;;;;;5071333;28;20092;-83
2023/08/20 03:24:49;;;;;;;6.80;4.65;;;;;;;;;;5077874;28;20017;-82
2023/08/20 03:27:16;;;;;;;5.20;4.32;;;;;;;;;;5075859;28;20028;-83
2023/08/20 03:29:41;;;;;;;7.18;4.40;;;;;;;;;;5075733;28;20075;-83
2023/08/20 03:32:06;;;;;;;6.05;4.78;;;;;;;;;;5072847;28;20111;-83
2023/08/20 03:34:31;;;;;;;5.40;4.80;;;;;;;;;;5072117;28;20028;-82
2023/08/20 03:36:57;;;;;;;7.15;5.00;;;;;;;;;;5076293;28;20029;-83
2023/08/20 03:39:22;;;;;;;8.35;5.38;;;;;;;;;;5071994;28;20024;-83
2023/08/20 03:41:47;;;;;;;6.13;4.60;;;;;;;;;;5078429;28;20485;-83
2023/08/20 03:44:13;;;;;;;6.28;5.03;;;;;;;;;;5072615;28;20032;-83
2023/08/20 03:46:38;;;;;;;5.80;4.63;;;;;;;;;;5074865;28;20032;-84
2023/08/20 03:49:03;;;;;;;7.93;4.88;;;;;;;;;;5084076;28;20034;-84
2023/08/20 03:51:29;;;;;;;6.03;4.72;;;;;;;;;;5072150;28;20032;-84
2023/08/20 03:53:54;;;;;;;8.32;5.32;;;;;;;;;;5074675;28;20020;-84
2023/08/20 03:56:19;;;;;;;6.93;4.50;;;;;;;;;;5072858;28;20024;-84
2023/08/20 03:58:45;;;;;;;6.00;4.88;;;;;;;;;;5074271;28;20040;-84
2023/08/20 04:01:10;;;;;;;6.97;4.90;;;;;;;;;;5077325;28;20035;-83
2023/08/20 04:03:35;;;;;;;7.43;5.13;;;;;;;;;;5075960;28;20016;-84
2023/08/20 04:06:01;;;;;;;8.85;4.70;;;;;;;;;;5080720;28;20043;-83
2023/08/20 04:08:26;;;;;;;7.72;5.22;;;;;;;;;;5080528;28;20036;-82
2023/08/20 04:10:52;;;;;;;6.13;4.72;;;;;;;;;;5085650;28;20035;-82
2023/08/20 04:13:17;;;;;;;6.32;4.60;;;;;;;;;;5084137;28;20048;-83
2023/08/20 04:15:43;;;;;;;7.38;4.90;;;;;;;;;;5072598;28;20036;-84
2023/08/20 04:18:08;;;;;;;6.57;5.05;;;;;;;;;;5074570;28;20081;-84
2023/08/20 04:20:34;;;;;;;6.25;5.20;;;;;;;;;;5081527;28;20515;-83
2023/08/20 04:22:59;;;;;;;7.18;5.07;;;;;;;;;;5074735;28;20048;-83
2023/08/20 04:25:24;;;;;;;6.15;5.15;;;;;;;;;;5073769;28;20032;-83
2023/08/20 04:27:50;;;;;;;7.38;5.00;;;;;;;;;;5079925;28;20446;-83
2023/08/20 04:30:15;;;;;;;4.70;4.15;;;;;;;;;;5079627;28;20047;-82
2023/08/20 04:32:41;;;;;;;5.78;4.60;;;;;;;;;;5077605;28;20051;-82
2023/08/20 04:35:07;;;;;;;6.80;4.63;;;;;;;;;;5080136;28;20032;-83
2023/08/20 04:37:32;;;;;;;7.15;4.90;;;;;;;;;;5077687;28;20101;-83
2023/08/20 04:39:57;;;;;;;6.03;4.45;;;;;;;;;;5078684;28;20032;-83
2023/08/20 04:42:23;;;;;;;6.45;4.80;;;;;;;;;;5067835;28;20104;-83
2023/08/20 04:44:48;;;;;;;7.15;4.93;;;;;;;;;;5074109;28;20030;-83
2023/08/20 04:47:13;;;;;;;7.25;4.90;;;;;;;;;;5074476;28;20397;-82
2023/08/20 04:49:39;;;;;;;7.68;4.68;;;;;;;;;;5075309;28;20024;-83
2023/08/20 04:52:04;;;;;;;7.60;4.82;;;;;;;;;;5074770;28;20024;-83
2023/08/20 04:54:30;;;;;;;6.88;4.53;;;;;;;;;;5069500;28;20046;-83
2023/08/20 04:56:55;;;;;;;6.47;4.75;;;;;;;;;;5068138;28;20646;-83
2023/08/20 04:59:20;;;;;;;7.18;5.03;;;;;;;;;;5087561;28;20095;-82
2023/08/20 05:01:46;;;;;;;7.55;4.63;;;;;;;;;;5093894;28;20016;-82
2023/08/20 05:04:11;;;;;;;6.50;5.10;;;;;;;;;;5098078;28;20020;-82
2023/08/20 05:06:37;;;;;;;6.70;5.00;;;;;;;;;;5090400;28;20028;-83
2023/08/20 05:09:03;;;;;;;7.63;4.60;;;;;;;;;;5079667;28;20737;-83
2023/08/20 05:11:31;;;;;;;6.32;4.72;;;;;;;;;;5076465;28;20039;-85
2023/08/20 05:13:56;;;;;;;7.40;5.50;;;;;;;;;;5079629;28;20020;-84
2023/08/20 05:16:22;;;;;;;9.35;5.20;;;;;;;;;;5079342;28;20077;-84
2023/08/20 05:18:47;;;;;;;8.25;6.00;;;;;;;;;;5080867;28;20054;-84
2023/08/20 05:21:13;;;;;;;7.13;5.22;;;;;;;;;;5073756;28;20456;-84
2023/08/20 05:23:40;;;;;;;7.95;4.82;;;;;;;;;;5073970;28;20027;-84
2023/08/20 05:26:07;;;;;;;6.18;4.97;;;;;;;;;;5079077;28;20027;-84
2023/08/20 05:28:32;;;;;;;7.60;5.57;;;;;;;;;;5083564;28;20032;-83
2023/08/20 05:30:58;;;;;;;7.90;4.93;;;;;;;;;;5075657;28;20052;-84
2023/08/20 05:33:24;;;;;;;8.57;5.18;;;;;;;;;;5071703;28;20020;-84
2023/08/20 05:35:49;;;;;;;7.15;5.03;;;;;;;;;;5076473;28;20025;-84
2023/08/20 05:38:15;;;;;;;6.75;5.50;;;;;;;;;;5072504;28;20032;-83
2023/08/20 05:40:41;;;;;;;8.05;5.55;;;;;;;;;;5076364;28;20134;-83
2023/08/20 05:43:06;;;;;;;8.27;5.15;;;;;;;;;;5075712;28;20523;-83
2023/08/20 05:45:32;;;;;;;9.52;5.82;;;;;;;;;;5073535;28;20032;-83
2023/08/20 05:47:57;;;;;;;6.95;5.28;;;;;;;;;;5074932;28;20534;-84
2023/08/20 05:50:22;;;;;;;6.30;4.88;;;;;;;;;;5070629;28;20054;-84
2023/08/20 05:52:48;;;;;;;7.72;5.78;;;;;;;;;;5074418;28;20024;-83
2023/08/20 05:55:13;;;;;;;9.05;5.05;;;;;;;;;;5075428;28;20058;-84
2023/08/20 05:57:39;;;;;;;7.07;5.25;;;;;;;;;;5074090;28;20021;-83
2023/08/20 06:00:05;;;;;;;10.15;6.00;;;;;;;;;;5075880;28;20043;-84
2023/08/20 06:02:30;;;;;;;7.20;5.50;;;;;;;;;;5082284;28;20033;-84
2023/08/20 06:04:56;;;;;;;7.65;5.35;;;;;;;;;;5079009;28;20070;-83
2023/08/20 06:07:21;;;;;;;10.13;5.90;;;;;;;;;;5072577;28;20020;-84
2023/08/20 06:09:47;;;;;;;6.70;5.60;;;;;;;;;;5075915;28;20033;-84
2023/08/20 06:12:12;;;;;;;6.78;4.85;;;;;;;;;;5077065;28;20063;-84
2023/08/20 06:14:37;;;;;;;8.88;5.68;;;;;;;;;;5076036;28;20032;-83
2023/08/20 06:17:03;;;;;;;8.25;4.88;;;;;;;;;;5074949;28;20241;-84
2023/08/20 06:19:29;;;;;;;7.85;5.78;;;;;;;;;;5078185;28;20029;-84
2023/08/20 06:21:54;;;;;;;6.72;5.32;;;;;;;;;;5075744;28;20031;-84
2023/08/20 06:24:19;;;;;;;8.05;5.18;;;;;;;;;;5077804;28;20024;-84
2023/08/20 06:26:45;;;;;;;8.27;5.13;;;;;;;;;;5074775;28;20415;-84
2023/08/20 06:29:10;;;;;;;7.05;5.45;;;;;;;;;;5075225;28;20023;-83
2023/08/20 06:31:36;;;;;;;7.60;6.35;;;;;;;;;;5075812;28;20024;-84
2023/08/20 06:34:02;;;;;;;9.38;6.15;;;;;;;;;;5071144;28;20035;-84
2023/08/20 06:36:27;;;;;;;8.57;6.40;;;;;;;;;;5080286;28;20493;-83
2023/08/20 06:38:53;;;;;;;8.45;5.95;;;;;;;;;;5075543;28;20020;-84
2023/08/20 06:41:18;;;;;;;9.98;6.28;;;;;;;;;;5079967;28;20043;-84
2023/08/20 06:43:43;;;;;;;7.32;5.80;;;;;;;;;;5075038;28;20554;-84
2023/08/20 06:46:09;;;;;;;10.43;5.93;;;;;;;;;;5072732;28;20035;-83
2023/08/20 06:48:34;;;;;;;7.70;5.82;;;;;;;;;;5077840;28;20028;-84
2023/08/20 06:51:11;;;;;;;8.25;6.00;;;;;;;;;;5075398;28;20404;-85
2023/08/20 06:53:37;;;;;;;8.60;5.80;;;;;;;;;;5073084;28;20016;-84
2023/08/20 06:56:02;;;;;;;6.78;5.22;;;;;;;;;;5069094;28;20036;-84
2023/08/20 06:58:28;;;;;;;7.25;5.25;;;;;;;;;;5068575;28;20039;-84
2023/08/20 07:00:53;;;;;;;9.23;5.63;;;;;;;;;;5068944;28;20470;-84
2023/08/20 07:03:19;;;;;;;7.97;5.35;;;;;;;;;;5068818;28;20024;-84
2023/08/20 07:05:44;;;;;;;6.50;5.40;;;;;;;;;;5068625;28;20028;-84
2023/08/20 07:08:09;;;;;;;9.65;5.60;;;;;;;;;;5072339;28;20035;-84
2023/08/20 07:10:35;;;;;;;6.70;5.13;;;;;;;;;;5070298;28;20024;-84
2023/08/20 07:13:00;;;;;;;7.78;5.45;;;;;;;;;;5069456;28;20113;-85
2023/08/20 07:15:25;;;;;;;7.72;5.45;;;;;;;;;;5071631;28;20124;-85
2023/08/20 07:17:51;;;;;;;7.35;5.53;;;;;;;;;;5069727;28;20052;-85
2023/08/20 07:20:16;;;;;;;7.53;5.78;;;;;;;;;;5068957;28;20031;-83
2023/08/20 07:22:42;;;;;;;6.95;5.35;;;;;;;;;;5069450;28;20039;-84
2023/08/20 07:25:08;;;;;;;9.68;5.95;;;;;;;;;;5068871;28;20031;-84
2023/08/20 07:27:33;;;;;;;8.60;5.72;;;;;;;;;;5068716;28;20051;-84
2023/08/20 07:29:58;;;;;;;7.60;5.75;;;;;;;;;;5070297;28;20460;-84
2023/08/20 07:32:24;;;;;;;9.50;5.68;;;;;;;;;;5069450;28;20074;-84
2023/08/20 07:34:49;;;;;;;8.25;5.43;;;;;;;;;;5070249;28;20035;-84
2023/08/20 07:37:14;;;;;;;6.72;5.15;;;;;;;;;;5070232;28;20043;-84
2023/08/20 07:39:40;;;;;;;7.80;5.63;;;;;;;;;;5068706;28;20185;-84
2023/08/20 07:42:06;;;;;;;9.48;6.43;;;;;;;;;;5070052;28;20012;-84
2023/08/20 07:44:31;;;;;;;8.75;5.47;;;;;;;;;;5069390;28;20036;-84
2023/08/20 07:46:57;;;;;;;8.32;5.47;;;;;;;;;;5071555;28;20032;-84
2023/08/20 07:49:22;;;;;;;7.80;5.90;;;;;;;;;;5068708;28;20027;-84
2023/08/20 07:51:48;;;;;;;6.00;4.80;;;;;;;;;;5068917;28;20052;-84
2023/08/20 07:54:13;;;;;;;8.75;5.60;;;;;;;;;;5069995;28;20029;-84
2023/08/20 07:56:39;;;;;;;7.57;5.93;;;;;;;;;;5074645;28;20051;-84
2023/08/20 07:59:04;;;;;;;9.00;5.10;;;;;;;;;;5069460;28;20464;-84
2023/08/20 08:01:29;;;;;;;8.65;6.10;;;;;;;;;;5068168;28;20035;-84
2023/08/20 08:03:55;;;;;;;8.38;5.78;;;;;;;;;;5071069;28;20448;-84
2023/08/20 08:06:22;;;;;;;8.50;5.50;;;;;;;;;;5069234;28;20016;-84
2023/08/20 08:08:48;;;;;;;8.13;5.53;;;;;;;;;;5068875;28;20039;-84
2023/08/20 08:11:13;;;;;;;8.75;5.82;;;;;;;;;;5069910;28;20021;-84
2023/08/20 08:13:39;;;;;;;6.50;5.00;;;;;;;;;;5070652;28;20077;-84
2023/08/20 08:16:04;;;;;;;8.60;5.30;;;;;;;;;;5068158;28;20071;-84
2023/08/20 08:18:30;;;;;;;8.10;5.10;;;;;;;;;;5069789;28;20386;-83
2023/08/20 08:20:55;;;;;;;6.95;5.28;;;;;;;;;;5068796;28;20367;-85
2023/08/20 08:23:20;;;;;;;6.03;4.82;;;;;;;;;;5070910;28;20042;-84
2023/08/20 08:25:45;;;;;;;7.13;4.63;;;;;;;;;;5071055;28;20413;-84
2023/08/20 08:28:11;;;;;;;6.55;5.30;;;;;;;;;;5069120;28;20397;-84
2023/08/20 08:30:37;;;;;;;5.75;4.68;;;;;;;;;;5068465;28;20527;-85
2023/08/20 08:33:03;;;;;;;8.88;5.05;;;;;;;;;;5069024;28;20422;-83
2023/08/20 08:35:29;;;;;;;7.22;5.43;;;;;;;;;;5067019;28;20540;-85
2023/08/20 08:37:54;;;;;;;7.00;5.25;;;;;;;;;;5067898;28;20105;-84
2023/08/20 08:40:20;;;;;;;7.35;4.97;;;;;;;;;;5069586;28;20020;-85
2023/08/20 08:42:50;;;;;;;8.50;4.82;;;;;;;;;;5065213;28;20035;-84
2023/08/20 08:45:18;;;;;;;7.45;5.05;;;;;;;;;;5067601;28;20226;-86
2023/08/20 08:47:44;;;;;;;6.47;5.18;;;;;;;;;;5067135;28;20032;-84
2023/08/20 08:50:10;;;;;;;5.90;4.78;;;;;;;;;;5065595;28;20024;-84
2023/08/20 08:52:37;;;;;;;6.85;5.50;;;;;;;;;;5067938;28;20024;-84
2023/08/20 08:55:05;;;;;;;5.22;4.20;;;;;;;;;;5068300;28;20037;-84
2023/08/20 08:57:30;;;;;;;9.60;5.22;;;;;;;;;;5070025;28;20413;-84
2023/08/20 08:59:56;;;;;;;6.47;4.78;;;;;;;;;;5067859;28;20028;-85
2023/08/20 09:02:23;;;;;;;6.32;4.65;;;;;;;;;;5068775;28;20020;-86
2023/08/20 09:04:48;;;;;;;5.85;4.00;;;;;;;;;;5068761;28;20021;-85
2023/08/20 09:07:14;;;;;;;5.68;4.40;;;;;;;;;;5068442;28;20032;-84
2023/08/20 09:09:44;;;;;;;7.07;5.22;;;;;;;;;;5068625;28;20378;-84
2023/08/20 09:12:14;;;;;;;6.20;4.95;;;;;;;;;;5070378;28;20508;-84
2023/08/20 09:14:42;;;;;;;5.80;4.60;;;;;;;;;;5067325;28;20032;-85
2023/08/20 09:17:07;;;;;;;5.25;4.70;;;;;;;;;;5070222;28;20029;-85
2023/08/20 09:19:39;;;;;;;7.22;4.32;;;;;;;;;;5070237;28;20634;-84
2023/08/20 09:22:05;;;;;;;4.35;3.95;;;;;;;;;;5071309;28;20037;-85
2023/08/20 09:24:47;;;;;;;5.50;4.18;;;;;;;;;;5075899;28;20029;-85
2023/08/20 09:27:13;;;;;;;5.82;4.20;;;;;;;;;;5073066;28;20103;-85
2023/08/20 09:29:53;;;;;;;5.10;4.07;;;;;;;;;;5070313;28;20414;-84
2023/08/20 09:32:20;;;;;;;5.43;3.90;;;;;;;;;;5067865;28;20027;-85
2023/08/20 09:34:45;;;;;;;5.30;4.22;;;;;;;;;;5069515;28;20042;-85
2023/08/20 09:37:15;;;;;;;5.55;4.30;;;;;;;;;;5067918;28;20103;-85
2023/08/20 09:39:41;;;;;;;4.35;3.90;;;;;;;;;;5067274;28;20028;-85
2023/08/20 09:42:08;;;;;;;5.18;3.60;;;;;;;;;;5067801;28;20029;-85
2023/08/20 09:44:36;;;;;;;5.28;3.97;;;;;;;;;;5067684;28;20029;-85
2023/08/20 09:47:04;;;;;;;7.25;3.97;;;;;;;;;;5067130;28;20177;-85
2023/08/20 09:49:36;;;;;;;5.38;3.70;;;;;;;;;;5067062;28;20029;-85
2023/08/20 09:52:04;;;;;;;4.72;3.90;;;;;;;;;;5069402;28;20036;-85
2023/08/20 09:54:48;;;;;;;4.88;3.63;;;;;;;;;;5070763;28;20039;-85
2023/08/20 09:57:28;;;;;;;5.05;4.35;;;;;;;;;;5071415;28;20142;-86
2023/08/20 09:59:55;;;;;;;6.10;4.18;;;;;;;;;;5070942;28;20423;-86
2023/08/20 10:02:20;;;;;;;5.38;3.83;;;;;;;;;;5071326;28;20028;-85
2023/08/20 10:04:48;;;;;;;6.63;4.30;;;;;;;;;;5070984;28;20024;-84
2023/08/20 10:07:14;;;;;;;4.35;3.13;;;;;;;;;;5070396;28;20031;-85
2023/08/20 10:09:40;;;;;;;7.07;4.20;;;;;;;;;;5070935;28;20444;-85
2023/08/20 10:12:06;;;;;;;4.50;3.40;;;;;;;;;;5073029;28;20028;-85
2023/08/20 10:14:32;;;;;;;5.10;3.38;;;;;;;;;;5070072;28;20098;-85
2023/08/20 10:16:57;;;;;;;4.43;3.42;;;;;;;;;;5071081;28;20028;-85
2023/08/20 10:19:24;;;;;;;5.03;3.60;;;;;;;;;;5071579;28;20020;-85
2023/08/20 10:21:52;;;;;;;4.93;3.47;;;;;;;;;;5086536;28;20047;-85
2023/08/20 10:24:21;;;;;;;5.85;4.05;;;;;;;;;;5092195;28;20037;-84
2023/08/20 10:26:48;;;;;;;4.32;3.72;;;;;;;;;;5085963;28;20048;-85
2023/08/20 10:29:39;;;;;;;5.40;3.72;;;;;;;;;;5090930;28;20016;-84
2023/08/20 10:32:08;;;;;;;5.63;3.50;;;;;;;;;;5078852;28;20047;-85
2023/08/20 10:34:36;;;;;;;4.25;3.33;;;;;;;;;;5070539;28;20344;-85
2023/08/20 10:37:03;;;;;;;7.80;3.67;;;;;;;;;;5069664;28;20033;-85
2023/08/20 10:39:29;;;;;;;4.32;3.45;;;;;;;;;;5071524;28;20028;-85
2023/08/20 10:42:23;;;;;;;4.43;3.20;;;;;;;;;;5068508;28;20043;-85
2023/08/20 10:45:00;;;;;;;5.47;3.20;;;;;;;;;;5069241;28;20710;-85
2023/08/20 10:47:41;;;;;;;4.53;3.20;;;;;;;;;;5068205;28;20040;-84
2023/08/20 10:50:10;;;;;;;3.53;3.20;;;;;;;;;;5071087;28;20032;-84
2023/08/20 10:52:41;;;;;;;4.22;3.55;;;;;;;;;;5071211;28;20048;-86
2023/08/20 10:55:08;;;;;;;3.57;3.27;;;;;;;;;;5073515;28;20026;-85
2023/08/20 10:57:35;;;;;;;6.40;3.55;;;;;;;;;;5071208;28;20498;-84
2023/08/20 11:00:11;;;;;;;6.35;3.40;;;;;;;;;;5075226;28;20037;-84
2023/08/20 11:02:43;;;;;;;3.63;3.30;;;;;;;;;;5070228;28;20080;-85
2023/08/20 11:05:18;;;;;;;5.53;3.40;;;;;;;;;;5071303;28;20025;-85
2023/08/20 11:07:48;;;;;;;6.15;3.13;;;;;;;;;;5067310;28;20028;-84
2023/08/20 11:10:17;;;;;;;6.18;3.35;;;;;;;;;;5072215;28;20012;-85
2023/08/20 11:12:46;;;;;;;5.75;3.35;;;;;;;;;;5069437;28;20025;-85
2023/08/20 11:15:12;;;;;;;7.82;3.75;;;;;;;;;;5067531;28;20025;-85
2023/08/20 11:17:57;;;;;;;4.72;3.08;;;;;;;;;;5071827;28;20362;-85
2023/08/20 11:20:22;;;;;;;5.13;3.40;;;;;;;;;;5069164;28;20434;-85
2023/08/20 11:22:47;;;;;;;3.67;3.03;;;;;;;;;;5071191;28;20030;-84
2023/08/20 11:25:13;;;;;;;4.55;2.60;;;;;;;;;;5070292;28;20016;-85
2023/08/20 11:27:45;;;;;;;3.20;2.90;;;;;;;;;;5073101;28;20054;-84
2023/08/20 11:30:14;;;;;;;3.35;3.05;;;;;;;;;;5071173;28;20028;-86
2023/08/20 11:32:39;;;;;;;3.90;3.22;;;;;;;;;;5082798;28;20027;-85
2023/08/20 11:35:07;;;;;;;4.07;3.22;;;;;;;;;;5092984;28;20036;-86
2023/08/20 11:37:32;;;;;;;3.83;3.08;;;;;;;;;;5072947;28;20155;-84
2023/08/20 11:39:58;;;;;;;3.53;3.03;;;;;;;;;;5073893;28;20159;-85
2023/08/20 11:42:24;;;;;;;6.05;3.38;;;;;;;;;;5070326;28;20017;-85
2023/08/20 11:44:49;;;;;;;4.97;2.88;;;;;;;;;;5057566;28;20138;-85
2023/08/20 11:47:16;;;;;;;3.13;2.83;;;;;;;;;;5070923;28;20727;-84
2023/08/20 11:49:42;;;;;;;5.40;2.75;;;;;;;;;;5074714;28;20039;-85
2023/08/20 11:52:07;;;;;;;3.00;2.67;;;;;;;;;;5076592;28;20036;-84
2023/08/20 11:54:33;;;;;;;3.42;2.88;;;;;;;;;;5075429;28;20410;-84
2023/08/20 11:57:03;;;;;;;4.03;3.08;;;;;;;;;;5073729;28;20060;-85
2023/08/20 11:59:28;;;;;;;3.55;2.92;;;;;;;;;;5081307;28;20310;-85
2023/08/20 12:02:03;;;;;;;4.07;2.80;;;;;;;;;;5077937;28;20031;-85
2023/08/20 12:04:29;;;;;;;3.83;3.33;;;;;;;;;;5075283;28;20061;-85
2023/08/20 12:07:17;;;;;;;3.95;3.33;;;;;;;;;;5073720;28;20100;-85
2023/08/20 12:09:42;;;;;;;4.95;3.47;;;;;;;;;;5070026;28;20028;-84
2023/08/20 12:12:08;;;;;;;4.03;3.20;;;;;;;;;;5067544;28;20070;-84
2023/08/20 12:14:35;;;;;;;3.47;3.17;;;;;;;;;;5071450;28;20040;-86
2023/08/20 12:17:00;;;;;;;3.58;3.08;;;;;;;;;;5071554;28;20055;-85
2023/08/20 12:19:26;;;;;;;3.72;3.38;;;;;;;;;;5074119;28;20036;-84
2023/08/20 12:21:51;;;;;;;3.53;3.08;;;;;;;;;;5077212;28;20032;-85
2023/08/20 12:24:19;;;;;;;5.80;3.30;;;;;;;;;;5076661;28;20020;-84
2023/08/20 12:26:44;;;;;;;4.65;3.40;;;;;;;;;;5075249;28;20123;-84
2023/08/20 12:29:10;;;;;;;2.95;2.65;;;;;;;;;;5075100;28;20463;-84
2023/08/20 12:31:36;;;;;;;5.13;3.30;;;;;;;;;;5074935;28;20592;-83
2023/08/20 12:34:03;;;;;;;4.45;3.03;;;;;;;;;;5081964;28;20813;-83
2023/08/20 12:36:28;;;;;;;3.05;2.75;;;;;;;;;;5080640;28;20509;-85
2023/08/20 12:38:54;;;;;;;4.60;2.95;;;;;;;;;;5084418;28;20524;-86
2023/08/20 12:41:20;;;;;;;3.40;3.10;;;;;;;;;;5074997;28;20030;-85
2023/08/20 12:43:45;;;;;;;5.32;3.28;;;;;;;;;;5071358;28;20146;-83
2023/08/20 12:46:12;;;;;;;4.60;3.13;;;;;;;;;;5080481;28;20110;-84
2023/08/20 12:48:38;;;;;;;5.32;2.80;;;;;;;;;;5074688;28;20020;-87
2023/08/20 12:51:03;;;;;;;3.53;3.15;;;;;;;;;;5072686;28;20051;-86
2023/08/20 12:53:29;;;;;;;4.53;3.00;;;;;;;;;;5075135;28;20061;-86
2023/08/20 12:55:54;;;;;;;4.68;3.30;;;;;;;;;;5077234;28;20371;-86
2023/08/20 12:58:20;;;;;;;3.95;2.67;;;;;;;;;;5078424;28;20107;-86
2023/08/20 13:00:46;;;;;;;5.65;3.20;;;;;;;;;;5077990;28;20063;-84
2023/08/20 13:03:11;;;;;;;5.18;2.88;;;;;;;;;;5079968;28;20020;-84
2023/08/20 13:05:37;;;;;;;7.18;3.30;;;;;;;;;;5079366;28;20174;-84
2023/08/20 13:08:03;;;;;;;3.75;3.20;;;;;;;;;;5077681;28;20554;-84
2023/08/20 13:10:28;;;;;;;3.88;3.38;;;;;;;;;;5076428;28;20040;-86
2023/08/20 13:12:58;;;;;;;4.32;3.30;;;;;;;;;;5076972;28;20032;-83
2023/08/20 13:15:25;;;;;;;3.88;2.85;;;;;;;;;;5080127;28;20035;-84
2023/08/20 13:17:50;;;;;;;4.50;2.92;;;;;;;;;;5072932;28;20338;-85
2023/08/20 13:20:22;;;;;;;5.10;2.83;;;;;;;;;;5071973;28;20032;-84
2023/08/20 13:22:49;;;;;;;3.58;3.00;;;;;;;;;;5075408;28;20115;-85
2023/08/20 13:25:14;;;;;;;4.50;3.70;;;;;;;;;;5074344;28;20032;-83
2023/08/20 13:27:40;;;;;;;3.65;2.83;;;;;;;;;;5079657;28;20023;-83
2023/08/20 13:30:23;;;;;;;5.25;3.50;;;;;;;;;;5077164;28;20028;-86
2023/08/20 13:32:49;;;;;;;7.80;2.70;;;;;;;;;;5076315;28;20054;-86
2023/08/20 13:35:14;;;;;;;5.07;2.90;;;;;;;;;;5078409;28;20485;-83
2023/08/20 13:37:39;;;;;;;3.55;2.80;;;;;;;;;;5074638;28;20040;-86
2023/08/20 13:40:06;;;;;;;4.32;3.00;;;;;;;;;;5087561;28;20385;-84
2023/08/20 13:42:32;;;;;;;4.60;3.20;;;;;;;;;;5078359;28;20035;-84
2023/08/20 13:44:57;;;;;;;5.07;3.30;;;;;;;;;;5086907;28;20052;-83
2023/08/20 13:47:26;;;;;;;6.18;2.95;;;;;;;;;;5072111;28;20024;-84
2023/08/20 13:49:51;;;;;;;3.67;2.92;;;;;;;;;;5069138;28;20016;-83
2023/08/20 13:52:17;;;;;;;2.90;2.65;;;;;;;;;;5074867;28;20027;-84
2023/08/20 13:54:42;;;;;;;3.63;3.15;;;;;;;;;;5073524;28;20036;-84
2023/08/20 13:57:08;;;;;;;3.85;3.00;;;;;;;;;;5075172;28;20094;-80
2023/08/20 13:59:33;;;;;;;5.00;2.90;;;;;;;;;;5074674;28;20040;-86
2023/08/20 14:01:59;;;;;;;2.90;2.65;;;;;;;;;;5075311;28;20489;-86
2023/08/20 14:04:24;;;;;;;4.45;2.90;;;;;;;;;;5083144;28;20420;-85
2023/08/20 14:06:50;;;;;;;4.75;3.13;;;;;;;;;;5077934;28;20040;-85
2023/08/20 14:09:18;;;;;;;4.63;2.90;;;;;;;;;;5076114;28;20023;-83
2023/08/20 14:11:43;;;;;;;3.22;2.55;;;;;;;;;;5072092;28;20025;-84
2023/08/20 14:14:08;;;;;;;4.88;3.08;;;;;;;;;;5075188;28;20043;-84
2023/08/20 14:16:34;;;;;;;4.07;3.00;;;;;;;;;;5071949;28;20047;-84
2023/08/20 14:18:59;;;;;;;4.68;3.00;;;;;;;;;;5073074;28;20101;-85
2023/08/20 14:21:24;;;;;;;3.50;2.35;;;;;;;;;;5075780;28;21163;-85
2023/08/20 14:23:50;;;;;;;3.47;2.60;;;;;;;;;;5072932;28;20027;-86
2023/08/20 14:26:15;;;;;;;3.63;2.50;;;;;;;;;;5075283;28;20482;-85
2023/08/20 14:28:43;;;;;;;3.55;2.90;;;;;;;;;;5074324;28;20457;-84
2023/08/20 14:31:11;;;;;;;3.10;2.72;;;;;;;;;;5082201;28;20099;-83
2023/08/20 14:33:36;;;;;;;3.35;2.78;;;;;;;;;;5083799;28;20019;-84
2023/08/20 14:36:02;;;;;;;3.28;2.72;;;;;;;;;;5074675;28;20025;-85
2023/08/20 14:38:29;;;;;;;2.75;2.35;;;;;;;;;;5078348;28;20039;-84
2023/08/20 14:40:58;;;;;;;3.13;2.83;;;;;;;;;;5080246;28;20047;-83